createdAt,value
2019-02-02T00:00:30.243Z,15.05
2019-02-02T00:02:56.175Z,17.30
2019-02-02T00:05:22.110Z,15.70
2019-02-02T00:07:47.938Z,16.63
2019-02-02T00:10:16.604Z,15.03
2019-02-02T00:12:42.406Z,14.98
2019-02-02T00:15:12.188Z,17.17
2019-02-02T00:17:38.125Z,17.52
2019-02-02T00:20:07.721Z,16.50
2019-02-02T00:22:55.440Z,17.57
2019-02-02T00:25:21.283Z,15.80
2019-02-02T00:27:47.306Z,15.57
2019-02-02T00:30:15.678Z,15.50
2019-02-02T00:32:41.535Z,15.43
2019-02-02T00:35:07.900Z,14.80
2019-02-02T00:37:33.992Z,17.12
2019-02-02T00:39:59.856Z,15.58
2019-02-02T00:42:25.936Z,18.23
2019-02-02T00:44:51.845Z,16.17
2019-02-02T00:47:17.752Z,19.03
2019-02-02T00:49:43.611Z,16.20
2019-02-02T00:52:09.441Z,15.47
2019-02-02T00:54:35.276Z,16.10
2019-02-02T00:57:01.218Z,16.20
2019-02-02T00:59:27.317Z,16.30
2019-02-02T01:01:53.173Z,14.10
2019-02-02T01:04:19.004Z,14.30
2019-02-02T01:06:44.815Z,15.30
2019-02-02T01:09:13.250Z,15.77
2019-02-02T01:11:39.466Z,17.75
2019-02-02T01:14:05.491Z,15.18
2019-02-02T01:16:31.612Z,15.83
2019-02-02T01:18:57.708Z,15.95
2019-02-02T01:21:23.700Z,15.20
2019-02-02T01:23:49.851Z,14.20
2019-02-02T01:26:15.677Z,13.08
2019-02-02T01:28:44.780Z,15.10
2019-02-02T01:31:11.497Z,14.20
2019-02-02T01:33:37.337Z,15.40
2019-02-02T01:36:03.135Z,13.67
2019-02-02T01:38:28.961Z,14.00
2019-02-02T01:40:54.923Z,12.87
2019-02-02T01:43:21.195Z,13.50
2019-02-02T01:45:50.106Z,13.55
2019-02-02T01:48:16.226Z,14.25
2019-02-02T01:50:44.847Z,14.05
2019-02-02T01:53:10.913Z,14.70
2019-02-02T01:55:39.972Z,14.93
2019-02-02T01:58:16.003Z,15.43
2019-02-02T02:00:33.766Z,13.53
2019-02-02T02:02:59.926Z,14.40
2019-02-02T02:05:29.101Z,16.00
2019-02-02T02:07:55.157Z,15.03
2019-02-02T02:10:21.374Z,16.73
2019-02-02T02:12:47.356Z,16.45
2019-02-02T02:15:15.285Z,13.27
2019-02-02T02:17:41.295Z,15.88
2019-02-02T02:20:09.557Z,15.28
2019-02-02T02:22:41.294Z,15.03
2019-02-02T02:25:07.560Z,14.40
2019-02-02T02:27:33.377Z,15.90
2019-02-02T02:29:59.243Z,14.77
2019-02-02T02:32:25.316Z,16.20
2019-02-02T02:34:51.549Z,16.23
2019-02-02T02:37:20.634Z,15.10
2019-02-02T02:39:46.716Z,12.93
2019-02-02T02:42:15.508Z,13.70
2019-02-02T02:44:41.333Z,14.05
2019-02-02T02:47:07.172Z,13.43
2019-02-02T02:49:33.279Z,13.60
2019-02-02T02:51:59.414Z,15.95
2019-02-02T02:54:25.260Z,15.48
2019-02-02T02:56:51.114Z,19.73
2019-02-02T02:59:20.010Z,16.43
2019-02-02T03:01:46.103Z,17.95
2019-02-02T03:04:15.243Z,16.75
2019-02-02T03:06:41.381Z,16.60
2019-02-02T03:09:09.983Z,15.60
2019-02-02T03:11:35.788Z,15.20
2019-02-02T03:14:04.419Z,15.13
2019-02-02T03:16:30.246Z,15.20
2019-02-02T03:21:48.474Z,12.70
2019-02-02T03:24:14.277Z,13.23
2019-02-02T03:26:40.142Z,12.43
2019-02-02T03:29:06.013Z,12.00
2019-02-02T03:31:31.819Z,12.43
2019-02-02T03:33:57.630Z,10.77
2019-02-02T03:36:23.725Z,12.23
2019-02-02T03:38:49.557Z,12.78
2019-02-02T03:41:15.674Z,14.17
2019-02-02T03:43:41.932Z,13.30
2019-02-02T03:46:08.056Z,11.97
2019-02-02T03:48:34.193Z,12.05
2019-02-02T03:51:00.004Z,13.60
2019-02-02T03:53:25.896Z,14.40
2019-02-02T03:55:52.063Z,15.30
2019-02-02T03:58:18.157Z,15.88
2019-02-02T04:00:43.987Z,14.28
2019-02-02T04:03:10.164Z,14.70
2019-02-02T04:05:36.566Z,12.70
2019-02-02T04:08:02.387Z,13.40
2019-02-02T04:10:28.203Z,14.23
2019-02-02T04:12:54.039Z,12.20
2019-02-02T04:15:20.482Z,12.67
2019-02-02T04:17:46.287Z,13.75
2019-02-02T04:20:14.419Z,13.17
2019-02-02T04:22:40.754Z,14.38
2019-02-02T04:25:07.382Z,15.58
2019-02-02T04:27:36.336Z,14.50
2019-02-02T04:30:06.237Z,13.80
2019-02-02T04:32:32.171Z,13.10
2019-02-02T04:34:58.125Z,13.30
2019-02-02T04:37:24.199Z,13.20
2019-02-02T04:39:50.041Z,13.95
2019-02-02T04:42:15.878Z,14.03
2019-02-02T04:44:41.741Z,13.70
2019-02-02T04:47:07.567Z,13.13
2019-02-02T04:49:36.565Z,15.67
2019-02-02T04:52:02.388Z,13.65
2019-02-02T04:54:31.232Z,16.60
2019-02-02T04:56:57.073Z,16.27
2019-02-02T04:59:29.369Z,14.27
2019-02-02T05:01:53.705Z,13.93
2019-02-02T05:04:19.866Z,14.43
2019-02-02T05:06:45.961Z,13.25
2019-02-02T05:09:14.679Z,12.88
2019-02-02T05:11:40.490Z,12.82
2019-02-02T05:14:06.442Z,13.00
2019-02-02T05:16:32.263Z,10.83
2019-02-02T05:18:58.125Z,23.97
2019-02-02T05:21:27.706Z,17.77
2019-02-02T05:23:53.591Z,24.12
2019-02-02T05:26:20.470Z,30.83
2019-02-02T05:28:46.311Z,21.68
2019-02-02T05:31:15.934Z,21.20
2019-02-02T05:33:41.782Z,17.25
2019-02-02T05:36:10.658Z,16.13
2019-02-02T05:38:36.771Z,18.70
2019-02-02T05:41:05.843Z,17.80
2019-02-02T05:43:31.675Z,19.87
2019-02-02T05:46:00.505Z,17.60
2019-02-02T05:48:26.351Z,25.72
2019-02-02T05:50:52.180Z,26.13
2019-02-02T05:53:18.113Z,30.07
2019-02-02T05:55:43.945Z,26.50
2019-02-02T05:58:13.151Z,29.57
2019-02-02T06:00:40.914Z,29.18
2019-02-02T06:03:06.746Z,35.83
2019-02-02T06:05:32.663Z,32.10
2019-02-02T06:08:01.883Z,24.03
2019-02-02T06:10:27.975Z,25.40
2019-02-02T06:12:56.681Z,22.62
2019-02-02T06:15:22.909Z,31.75
2019-02-02T06:17:51.904Z,14.68
2019-02-02T06:20:17.749Z,15.25
2019-02-02T06:22:45.437Z,19.63
2019-02-02T06:25:13.365Z,18.15
2019-02-02T06:27:39.185Z,30.25
2019-02-02T06:30:14.187Z,23.67
2019-02-02T06:32:39.985Z,20.82
2019-02-02T06:35:08.642Z,15.37
2019-02-02T06:37:34.450Z,20.10
2019-02-02T06:40:00.573Z,17.40
2019-02-02T06:42:26.379Z,13.90
2019-02-02T06:44:52.229Z,11.20
2019-02-02T06:47:18.044Z,12.27
2019-02-02T06:49:43.976Z,12.07
2019-02-02T06:52:09.885Z,12.27
2019-02-02T06:54:36.087Z,11.57
2019-02-02T06:57:01.881Z,11.83
2019-02-02T06:59:30.485Z,10.57
2019-02-02T07:01:56.607Z,10.93
2019-02-02T07:04:22.738Z,10.50
2019-02-02T07:06:48.636Z,10.63
2019-02-02T07:09:14.502Z,10.70
2019-02-02T07:11:43.355Z,8.03
2019-02-02T07:14:09.441Z,8.95
2019-02-02T07:16:38.314Z,8.10
2019-02-02T07:19:04.439Z,9.20
2019-02-02T07:21:31.710Z,8.78
2019-02-02T07:23:57.833Z,9.20
2019-02-02T07:26:26.653Z,10.45
2019-02-02T07:28:52.476Z,11.70
2019-02-02T07:31:21.404Z,10.30
2019-02-02T07:33:47.225Z,10.32
2019-02-02T07:36:16.809Z,10.20
2019-02-02T07:38:42.947Z,11.10
2019-02-02T07:41:08.769Z,13.83
2019-02-02T07:43:34.700Z,15.80
2019-02-02T07:46:00.541Z,21.80
2019-02-02T07:48:29.819Z,28.90
2019-02-02T07:50:55.910Z,21.60
2019-02-02T07:53:24.805Z,17.45
2019-02-02T07:55:50.881Z,14.70
2019-02-02T07:58:16.936Z,13.98
2019-02-02T08:00:42.772Z,13.55
2019-02-02T08:03:13.539Z,13.10
2019-02-02T08:05:39.366Z,12.63
2019-02-02T08:08:08.245Z,9.90
2019-02-02T08:10:34.054Z,14.10
2019-02-02T08:13:03.644Z,20.57
2019-02-02T08:15:31.533Z,20.57
2019-02-02T08:17:57.370Z,15.65
2019-02-02T08:20:23.554Z,16.33
2019-02-02T08:22:49.486Z,16.60
2019-02-02T08:25:15.444Z,13.50
2019-02-02T08:27:41.761Z,12.87
2019-02-02T08:30:29.345Z,14.03
2019-02-02T08:32:55.203Z,8.25
2019-02-02T08:35:21.435Z,11.77
2019-02-02T08:37:47.664Z,9.88
2019-02-02T08:40:15.600Z,12.45
2019-02-02T08:42:41.737Z,10.90
2019-02-02T08:45:09.017Z,9.10
2019-02-02T08:47:34.879Z,8.65
2019-02-02T08:50:00.695Z,6.97
2019-02-02T08:52:26.557Z,4.57
2019-02-02T08:54:52.613Z,4.87
2019-02-02T08:57:18.710Z,4.60
2019-02-02T08:59:44.546Z,4.87
2019-02-02T09:02:10.490Z,4.53
2019-02-02T09:04:36.401Z,8.77
2019-02-02T09:07:02.265Z,12.00
2019-02-02T09:09:28.400Z,11.83
2019-02-02T09:11:54.507Z,12.17
2019-02-02T09:14:20.329Z,14.23
2019-02-02T09:16:46.166Z,11.63
2019-02-02T09:19:12.286Z,13.10
2019-02-02T09:21:38.570Z,19.37
2019-02-02T09:24:04.361Z,18.60
2019-02-02T09:26:31.455Z,15.90
2019-02-02T09:28:57.550Z,15.70
2019-02-02T09:31:23.397Z,14.97
2019-02-02T09:33:49.214Z,13.33
2019-02-02T09:36:16.930Z,11.43
2019-02-02T09:38:45.710Z,10.00
2019-02-02T09:41:11.544Z,10.33
2019-02-02T09:43:40.707Z,12.57
2019-02-02T09:46:06.517Z,10.77
2019-02-02T09:48:35.372Z,10.07
2019-02-02T09:51:01.189Z,9.90
2019-02-02T09:53:29.988Z,7.60
2019-02-02T09:55:56.175Z,7.23
2019-02-02T09:58:22.012Z,9.70
2019-02-02T10:00:47.875Z,11.63
2019-02-02T10:03:16.989Z,13.10
2019-02-02T10:05:42.825Z,16.87
2019-02-02T10:08:12.514Z,14.60
2019-02-02T10:10:38.422Z,16.80
2019-02-02T10:13:04.673Z,13.77
2019-02-02T10:15:30.514Z,14.83
2019-02-02T10:17:56.449Z,13.63
2019-02-02T10:20:28.225Z,13.57
2019-02-02T10:22:54.857Z,13.67
2019-02-02T10:25:23.741Z,12.83
2019-02-02T10:27:49.644Z,12.70
2019-02-02T10:30:28.072Z,12.17
2019-02-02T10:32:54.249Z,10.10
2019-02-02T10:35:20.101Z,10.23
2019-02-02T10:37:45.944Z,10.53
2019-02-02T10:40:13.438Z,10.00
2019-02-02T10:42:39.348Z,9.97
2019-02-02T10:45:08.744Z,11.10
2019-02-02T10:47:34.621Z,14.55
2019-02-02T10:50:00.867Z,9.47
2019-02-02T10:52:27.050Z,7.70
2019-02-02T10:54:53.166Z,6.80
2019-02-02T10:57:19.281Z,8.83
2019-02-02T10:59:45.094Z,9.68
2019-02-02T11:02:11.225Z,6.70
2019-02-02T11:04:37.111Z,6.53
2019-02-02T11:07:03.376Z,7.03
2019-02-02T11:09:29.161Z,7.15
2019-02-02T11:11:55.047Z,7.03
2019-02-02T11:14:20.886Z,6.40
2019-02-02T11:16:49.699Z,7.93
2019-02-02T11:19:15.987Z,7.35
2019-02-02T11:21:42.357Z,6.90
2019-02-02T11:24:08.623Z,5.40
2019-02-02T11:26:34.811Z,4.75
2019-02-02T11:29:00.945Z,5.87
2019-02-02T11:31:26.739Z,5.50
2019-02-02T11:33:53.794Z,4.93
2019-02-02T11:36:19.649Z,3.75
2019-02-02T11:38:51.085Z,3.83
2019-02-02T11:41:16.920Z,3.45
2019-02-02T11:43:45.782Z,2.33
2019-02-02T11:46:11.650Z,2.50
2019-02-02T11:48:40.476Z,3.73
2019-02-02T11:51:06.331Z,5.85
2019-02-02T11:53:37.357Z,5.97
2019-02-02T11:56:03.240Z,6.33
2019-02-02T11:58:29.360Z,5.97
2019-02-02T12:00:55.214Z,6.17
2019-02-02T12:03:21.039Z,6.67
2019-02-02T12:05:46.888Z,6.83
2019-02-02T12:08:13.616Z,7.10
2019-02-02T12:10:39.451Z,6.40
2019-02-02T12:13:05.286Z,6.10
2019-02-02T12:15:36.160Z,6.57
2019-02-02T12:18:02.197Z,7.57
2019-02-02T12:20:33.357Z,6.80
2019-02-02T12:22:59.049Z,7.67
2019-02-02T12:25:25.247Z,6.83
2019-02-02T12:27:51.385Z,5.93
2019-02-02T12:30:46.176Z,6.83
2019-02-02T12:33:12.084Z,6.10
2019-02-02T12:35:37.916Z,5.33
2019-02-02T12:38:04.127Z,4.60
2019-02-02T12:40:29.965Z,4.83
2019-02-02T12:42:55.791Z,4.00
2019-02-02T12:45:25.061Z,5.63
2019-02-02T12:47:50.992Z,5.57
2019-02-02T12:50:17.166Z,6.20
2019-02-02T12:52:43.293Z,5.30
2019-02-02T12:55:10.243Z,5.73
2019-02-02T12:57:36.335Z,6.00
2019-02-02T13:00:11.786Z,6.20
2019-02-02T13:02:38.574Z,5.77
2019-02-02T13:05:06.461Z,5.23
2019-02-02T13:07:32.611Z,5.23
2019-02-02T13:09:58.425Z,6.90
2019-02-02T13:12:24.546Z,7.37
2019-02-02T13:14:50.668Z,7.40
2019-02-02T13:17:16.499Z,7.87
2019-02-02T13:19:42.352Z,7.07
2019-02-02T13:22:08.351Z,7.10
2019-02-02T13:24:34.425Z,7.63
2019-02-02T13:27:00.273Z,6.83
2019-02-02T13:29:26.114Z,6.10
2019-02-02T13:31:52.415Z,5.80
2019-02-02T13:34:18.268Z,7.08
2019-02-02T13:36:44.192Z,5.30
2019-02-02T13:39:10.323Z,6.20
2019-02-02T13:41:36.174Z,6.12
2019-02-02T13:44:02.393Z,6.53
2019-02-02T13:46:28.622Z,7.12
2019-02-02T13:48:54.470Z,7.10
2019-02-02T13:51:20.286Z,7.40
2019-02-02T13:53:46.089Z,7.97
2019-02-02T13:56:11.917Z,8.93
2019-02-02T13:58:37.988Z,7.97
2019-02-02T14:01:03.814Z,8.00
2019-02-02T14:03:30.061Z,9.27
2019-02-02T14:05:55.877Z,8.65
2019-02-02T14:08:21.730Z,9.63
2019-02-02T14:10:47.653Z,11.73
2019-02-02T14:13:13.748Z,8.90
2019-02-02T14:15:39.743Z,11.00
2019-02-02T14:18:05.980Z,9.38
2019-02-02T14:20:34.853Z,11.05
2019-02-02T14:23:00.669Z,9.30
2019-02-02T14:25:26.747Z,10.50
2019-02-02T14:27:52.612Z,10.82
2019-02-02T14:30:20.580Z,10.10
2019-02-02T14:32:46.524Z,10.85
2019-02-02T14:35:14.627Z,10.00
2019-02-02T14:37:40.689Z,9.20
2019-02-02T14:40:11.817Z,9.30
2019-02-02T14:42:37.914Z,9.13
2019-02-02T14:45:07.324Z,11.05
2019-02-02T14:47:33.167Z,11.22
2019-02-02T14:49:58.969Z,11.90
2019-02-02T14:52:25.074Z,11.00
2019-02-02T14:54:51.038Z,11.78
2019-02-02T14:57:20.136Z,10.07
2019-02-02T14:59:46.226Z,11.25
2019-02-02T15:02:12.085Z,12.63
2019-02-02T15:04:37.953Z,12.33
2019-02-02T15:07:03.783Z,10.30
2019-02-02T15:09:32.701Z,11.83
2019-02-02T15:11:58.517Z,10.75
2019-02-02T15:14:26.014Z,10.57
2019-02-02T15:16:51.842Z,11.33
2019-02-02T15:19:22.546Z,11.43
2019-02-02T15:21:48.387Z,11.93
2019-02-02T15:24:17.332Z,10.93
2019-02-02T15:26:43.301Z,11.48
2019-02-02T15:29:12.234Z,12.30
2019-02-02T15:31:38.065Z,11.70
2019-02-02T15:34:07.153Z,11.70
2019-02-02T15:36:32.981Z,14.00
2019-02-02T15:38:58.825Z,11.50
2019-02-02T15:41:24.902Z,11.70
2019-02-02T15:43:51.007Z,11.38
2019-02-02T15:46:16.837Z,13.03
2019-02-02T15:48:42.742Z,12.27
2019-02-02T15:51:11.395Z,11.90
2019-02-02T15:53:37.505Z,12.90
2019-02-02T15:56:06.355Z,12.03
2019-02-02T15:58:32.199Z,12.15
2019-02-02T16:01:01.570Z,12.33
2019-02-02T16:03:27.497Z,11.93
2019-02-02T16:05:56.093Z,13.27
2019-02-02T16:08:21.931Z,11.45
2019-02-02T16:10:51.000Z,11.87
2019-02-02T16:13:16.814Z,12.88
2019-02-02T16:15:42.637Z,11.00
2019-02-02T16:18:08.692Z,11.03
2019-02-02T16:20:36.747Z,12.05
2019-02-02T16:23:03.402Z,10.78
2019-02-02T16:25:29.474Z,12.23
2019-02-02T16:27:58.113Z,11.25
2019-02-02T16:30:29.912Z,11.88
2019-02-02T16:32:55.810Z,10.63
2019-02-02T16:35:22.028Z,12.20
2019-02-02T16:37:48.164Z,10.98
2019-02-02T16:40:27.062Z,12.23
2019-02-02T16:42:53.871Z,10.35
2019-02-02T16:45:23.012Z,11.60
2019-02-02T16:47:49.136Z,10.70
2019-02-02T16:50:16.796Z,24.30
2019-02-02T16:52:43.529Z,17.23
2019-02-02T16:55:11.851Z,12.55
2019-02-02T16:57:37.672Z,11.15
2019-02-02T17:00:07.316Z,11.10
2019-02-02T17:02:33.135Z,10.48
2019-02-02T17:04:58.950Z,10.80
2019-02-02T17:07:24.776Z,10.40
2019-02-02T17:09:50.613Z,12.30
2019-02-02T17:12:16.700Z,11.70
2019-02-02T17:14:42.658Z,12.15
2019-02-02T17:17:08.778Z,10.90
2019-02-02T17:19:34.602Z,12.03
2019-02-02T17:22:00.443Z,11.70
2019-02-02T17:24:26.276Z,12.57
2019-02-02T17:26:52.114Z,13.10
2019-02-02T17:29:17.956Z,13.17
2019-02-02T17:31:44.061Z,12.50
2019-02-02T17:34:09.903Z,12.07
2019-02-02T17:36:35.738Z,11.70
2019-02-02T17:39:01.578Z,13.83
2019-02-02T17:41:27.395Z,11.83
2019-02-02T17:43:53.228Z,11.53
2019-02-02T17:46:23.896Z,12.63
2019-02-02T17:48:49.723Z,12.00
2019-02-02T17:51:18.406Z,13.03
2019-02-02T17:53:44.507Z,12.30
2019-02-02T17:56:13.398Z,14.03
2019-02-02T17:58:40.083Z,13.03
2019-02-02T18:01:06.231Z,14.23
2019-02-02T18:03:32.033Z,12.95
2019-02-02T18:05:58.125Z,15.50
2019-02-02T18:08:23.918Z,15.40
2019-02-02T18:10:49.748Z,15.20
2019-02-02T18:13:18.895Z,15.43
2019-02-02T18:15:44.719Z,15.35
2019-02-02T18:18:12.642Z,12.03
2019-02-02T18:20:38.465Z,13.95
2019-02-02T18:23:07.478Z,16.07
2019-02-02T18:25:33.595Z,15.55
2019-02-02T18:28:03.043Z,14.60
2019-02-02T18:30:28.972Z,16.67
2019-02-02T18:32:56.265Z,16.60
2019-02-02T18:35:23.186Z,17.20
2019-02-02T18:37:51.815Z,16.80
2019-02-02T18:40:22.889Z,17.42
2019-02-02T18:42:48.941Z,16.55
2019-02-02T18:45:20.068Z,16.77
2019-02-02T18:47:45.921Z,19.77
2019-02-02T18:50:13.836Z,17.83
2019-02-02T18:52:39.750Z,17.05
2019-02-02T18:55:09.401Z,18.87
2019-02-02T18:57:35.213Z,18.42
2019-02-02T19:00:01.322Z,19.50
2019-02-02T19:02:27.510Z,18.82
2019-02-02T19:05:03.453Z,17.62
2019-02-02T19:07:21.359Z,16.75
2019-02-02T19:09:47.212Z,17.80
2019-02-02T19:12:13.044Z,15.47
2019-02-02T19:14:38.886Z,17.17
2019-02-02T19:17:04.709Z,16.80
2019-02-02T19:19:30.853Z,16.10
2019-02-02T19:21:56.705Z,15.93
2019-02-02T19:24:22.548Z,15.20
2019-02-02T19:26:48.641Z,18.50
2019-02-02T19:29:14.477Z,17.20
2019-02-02T19:31:43.359Z,17.17
2019-02-02T19:34:09.460Z,14.73
2019-02-02T19:36:38.654Z,16.52
2019-02-02T19:39:05.837Z,17.40
2019-02-02T19:41:34.754Z,15.53
2019-02-02T19:44:00.583Z,19.62
2019-02-02T19:46:29.513Z,21.30
2019-02-02T19:48:55.616Z,29.30
2019-02-02T19:51:24.421Z,31.35
2019-02-02T19:53:50.532Z,34.43
2019-02-02T19:56:16.340Z,31.90
2019-02-02T19:58:42.143Z,23.13
2019-02-02T20:01:07.991Z,23.57
2019-02-02T20:03:33.821Z,25.67
2019-02-02T20:05:59.969Z,27.23
2019-02-02T20:08:29.215Z,25.70
2019-02-02T20:10:55.140Z,30.15
2019-02-02T20:13:24.000Z,25.87
2019-02-02T20:15:49.844Z,26.87
2019-02-02T20:18:18.782Z,25.87
2019-02-02T20:20:44.898Z,23.87
2019-02-02T20:23:13.765Z,25.52
2019-02-02T20:25:39.948Z,24.55
2019-02-02T20:28:07.627Z,27.02
2019-02-02T20:30:33.607Z,27.95
2019-02-02T20:32:59.810Z,24.90
2019-02-02T20:35:26.119Z,22.70
2019-02-02T20:37:52.453Z,25.15
2019-02-02T20:40:23.321Z,22.93
2019-02-02T20:42:49.435Z,24.27
2019-02-02T20:45:22.360Z,26.48
2019-02-02T20:47:48.190Z,30.00
2019-02-02T20:50:17.774Z,25.60
2019-02-02T20:52:47.709Z,25.52
2019-02-02T20:55:33.555Z,27.02
2019-02-02T20:57:59.432Z,26.27
2019-02-02T21:00:27.237Z,26.23
2019-02-02T21:02:53.137Z,27.00
2019-02-02T21:05:18.948Z,29.47
2019-02-02T21:07:45.030Z,27.17
2019-02-02T21:10:17.088Z,25.62
2019-02-02T21:12:43.133Z,29.00
2019-02-02T21:15:10.865Z,29.20
2019-02-02T21:17:36.710Z,26.40
2019-02-02T21:20:08.922Z,24.97
2019-02-02T21:22:35.570Z,21.82
2019-02-02T21:25:02.076Z,21.75
2019-02-02T21:27:28.189Z,19.37
2019-02-02T21:29:53.993Z,18.48
2019-02-02T21:32:19.814Z,20.37
2019-02-02T21:34:45.617Z,18.87
2019-02-02T21:37:11.442Z,20.53
2019-02-02T21:39:37.256Z,19.43
2019-02-02T21:42:03.206Z,19.40
2019-02-02T21:44:29.040Z,18.97
2019-02-02T21:46:54.943Z,19.03
2019-02-02T21:49:20.759Z,20.67
2019-02-02T21:51:46.837Z,17.37
2019-02-02T21:54:12.679Z,18.85
2019-02-02T21:56:38.501Z,23.57
2019-02-02T21:59:04.613Z,25.10
2019-02-02T22:01:31.036Z,25.72
2019-02-02T22:03:56.904Z,27.22
2019-02-02T22:06:22.740Z,26.20
2019-02-02T22:08:48.825Z,27.47
2019-02-02T22:11:14.629Z,25.02
2019-02-02T22:13:40.465Z,24.20
2019-02-02T22:16:06.561Z,27.37
2019-02-02T22:18:34.206Z,25.43
2019-02-02T22:21:00.230Z,24.63
2019-02-02T22:23:28.341Z,26.65
2019-02-02T22:25:54.571Z,26.12
2019-02-02T22:28:22.677Z,26.65
2019-02-02T22:30:49.130Z,23.80
2019-02-02T22:33:15.226Z,24.18
2019-02-02T22:35:41.061Z,24.02
2019-02-02T22:38:06.994Z,24.73
2019-02-02T22:40:33.209Z,26.27
2019-02-02T22:42:59.004Z,25.30
2019-02-02T22:45:24.858Z,24.60
2019-02-02T22:47:50.704Z,25.53
2019-02-02T22:50:18.350Z,26.27
2019-02-02T22:52:44.550Z,25.10
2019-02-02T22:55:13.017Z,24.55
2019-02-02T22:57:39.111Z,21.48
2019-02-02T23:00:17.306Z,21.45
2019-02-02T23:02:43.269Z,22.30
2019-02-02T23:05:16.323Z,24.05
2019-02-02T23:07:46.004Z,20.50
2019-02-02T23:10:26.631Z,21.30
2019-02-02T23:12:56.279Z,20.23
2019-02-02T23:15:43.335Z,23.02
2019-02-02T23:18:09.432Z,20.95
2019-02-02T23:20:35.285Z,22.05
2019-02-02T23:23:01.459Z,21.47
2019-02-02T23:25:27.563Z,21.65
2019-02-02T23:27:53.803Z,23.45
2019-02-02T23:30:19.606Z,20.00
2019-02-02T23:32:45.431Z,22.57
2019-02-02T23:35:11.722Z,22.40
2019-02-02T23:37:37.937Z,21.07
2019-02-02T23:40:10.424Z,22.05
2019-02-02T23:42:36.552Z,23.00
2019-02-02T23:45:05.587Z,22.98
2019-02-02T23:47:31.438Z,22.40
2019-02-02T23:49:57.288Z,20.67
2019-02-02T23:52:23.084Z,19.50
2019-02-02T23:54:48.955Z,19.53
2019-02-02T23:57:14.870Z,22.20
2019-02-02T23:59:41.005Z,22.60
